createdAt,value
2022-08-07T06:42:02.605Z,101.25
2022-08-07T06:42:42.768Z,101.25
2022-08-07T06:43:46.378Z,101.25
2022-08-07T06:44:42.782Z,101.25
2022-08-07T06:45:44.653Z,101.25
2022-08-07T06:46:42.797Z,101.25
2022-08-07T06:47:57.071Z,101.25
2022-08-07T06:48:44.389Z,101.25
2022-08-07T06:49:52.135Z,101.25
2022-08-07T06:50:43.286Z,106.88
2022-08-07T06:51:49.577Z,106.88
2022-08-07T06:52:42.849Z,106.88
2022-08-07T06:55:28.774Z,106.88
2022-08-07T06:55:34.391Z,106.88
2022-08-07T06:55:53.723Z,106.88
2022-08-07T06:56:49.799Z,106.88
2022-08-07T06:57:47.190Z,106.88
2022-08-07T07:00:12.532Z,106.88
2022-08-07T07:00:14.269Z,106.88
2022-08-07T07:00:42.924Z,106.88
2022-08-07T07:01:48.765Z,106.88
2022-08-07T07:02:53.941Z,106.88
2022-08-07T07:03:50.043Z,106.88
2022-08-07T07:04:43.558Z,106.88
2022-08-07T07:06:02.926Z,106.88
2022-08-07T07:07:00.699Z,106.88
2022-08-07T07:07:59.314Z,112.50
2022-08-07T07:08:46.743Z,112.50
2022-08-07T07:09:42.998Z,112.50
2022-08-07T07:10:54.723Z,112.50
2022-08-07T07:12:08.781Z,112.50
2022-08-07T07:12:48.516Z,112.50
2022-08-07T07:13:58.528Z,112.50
2022-08-07T07:14:43.045Z,112.50
2022-08-07T07:15:43.249Z,112.50
2022-08-07T07:16:49.697Z,112.50
2022-08-07T07:17:45.215Z,118.13
2022-08-07T07:18:47.736Z,118.13
2022-08-07T07:19:57.554Z,118.13
2022-08-07T07:20:43.111Z,118.13
2022-08-07T07:22:04.845Z,118.13
2022-08-07T07:24:08.775Z,118.13
2022-08-07T07:24:08.908Z,118.13
2022-08-07T07:24:56.758Z,118.13
2022-08-07T07:26:32.926Z,118.13
2022-08-07T07:26:49.596Z,123.75
2022-08-07T07:28:01.885Z,118.13
2022-08-07T07:29:28.592Z,118.13
2022-08-07T07:30:08.701Z,123.75
2022-08-07T07:30:43.200Z,123.75
2022-08-07T07:31:46.833Z,123.75
2022-08-07T07:32:43.224Z,123.75
2022-08-07T07:33:43.229Z,129.38
2022-08-07T07:34:43.248Z,129.38
2022-08-07T07:35:43.722Z,129.38
2022-08-07T07:36:43.865Z,129.38
2022-08-07T07:37:47.180Z,129.38
2022-08-07T07:38:45.942Z,129.38
2022-08-07T07:39:52.441Z,135.00
2022-08-07T07:40:43.299Z,135.00
2022-08-07T07:42:02.337Z,135.00
2022-08-07T07:42:43.322Z,135.00
2022-08-07T07:44:14.203Z,135.00
2022-08-07T07:46:39.852Z,140.63
2022-08-07T07:46:54.493Z,140.63
2022-08-07T07:47:52.464Z,140.63
2022-08-07T07:48:43.379Z,146.25
2022-08-07T07:50:32.962Z,146.25
2022-08-07T07:50:43.398Z,146.25
2022-08-07T07:51:58.497Z,146.25
2022-08-07T07:52:43.430Z,157.50
2022-08-07T07:53:51.971Z,151.88
2022-08-07T07:54:50.771Z,151.88
2022-08-07T07:55:45.530Z,151.88
2022-08-07T07:56:43.468Z,157.50
2022-08-07T07:57:52.059Z,157.50
2022-08-07T07:58:43.489Z,157.50
2022-08-07T07:59:52.849Z,157.50
2022-08-07T08:00:43.509Z,157.50
2022-08-07T08:02:03.296Z,163.13
2022-08-07T08:03:01.270Z,163.13
2022-08-07T08:04:09.487Z,163.13
2022-08-07T08:04:43.636Z,163.13
2022-08-07T08:05:53.954Z,163.13
2022-08-07T08:06:50.601Z,163.13
2022-08-07T08:07:59.948Z,163.13
2022-08-07T08:08:43.591Z,163.13
2022-08-07T08:09:52.612Z,163.13
2022-08-07T08:10:43.610Z,163.13
2022-08-07T08:12:00.024Z,168.75
2022-08-07T08:12:59.129Z,168.75
2022-08-07T08:13:54.149Z,168.75
2022-08-07T08:14:43.651Z,168.75
2022-08-07T08:15:58.759Z,168.75
2022-08-07T08:16:50.330Z,168.75
2022-08-07T08:18:36.481Z,168.75
2022-08-07T08:18:45.142Z,168.75
2022-08-07T08:20:22.247Z,168.75
2022-08-07T08:20:43.714Z,168.75
2022-08-07T08:22:00.588Z,168.75
2022-08-07T08:22:55.657Z,174.38
2022-08-07T08:23:43.749Z,174.38
2022-08-07T08:24:45.613Z,174.38
2022-08-07T08:25:49.277Z,174.38
2022-08-07T08:26:43.778Z,185.63
2022-08-07T08:27:43.961Z,196.88
2022-08-07T08:28:45.045Z,208.13
2022-08-07T08:29:54.320Z,213.75
2022-08-07T08:30:51.319Z,230.63
2022-08-07T08:32:17.495Z,247.50
2022-08-07T08:32:48.665Z,258.75
2022-08-07T08:33:49.807Z,264.38
2022-08-07T08:34:44.854Z,275.63
2022-08-07T08:35:50.656Z,286.88
2022-08-07T08:36:46.243Z,298.13
2022-08-07T08:38:00.651Z,303.75
2022-08-07T08:38:44.630Z,315.00
2022-08-07T08:39:55.048Z,326.25
2022-08-07T08:40:46.839Z,393.75
2022-08-07T08:41:56.735Z,1018.13
2022-08-07T08:42:43.959Z,1698.75
2022-08-07T08:43:56.280Z,1766.25
2022-08-07T08:44:45.715Z,1794.38
2022-08-07T08:45:59.624Z,1805.63
2022-08-07T08:46:44.996Z,1839.38
2022-08-07T08:47:52.941Z,1856.25
2022-08-07T08:48:44.028Z,1884.38
2022-08-07T08:49:46.810Z,1912.50
2022-08-07T10:27:06.699Z,376.88
2022-08-07T10:28:07.308Z,382.50
2022-08-07T10:29:06.103Z,388.13
2022-08-07T10:30:06.333Z,416.25
2022-08-07T10:31:10.968Z,433.13
2022-08-07T10:32:06.167Z,438.75
2022-08-07T10:33:06.179Z,450.00
2022-08-07T10:34:17.943Z,450.00
2022-08-07T10:35:08.995Z,450.00
2022-08-07T10:36:11.390Z,461.25
2022-08-07T10:37:06.379Z,478.13
2022-08-07T10:38:35.133Z,495.00
2022-08-07T10:39:06.378Z,517.50
2022-08-07T10:40:08.858Z,523.13
2022-08-07T10:41:06.329Z,517.50
2022-08-07T10:42:09.868Z,506.25
2022-08-07T10:43:06.363Z,511.88
2022-08-07T10:44:07.841Z,511.88
2022-08-07T10:45:06.396Z,523.13
2022-08-07T10:46:06.407Z,585.00
2022-08-07T10:47:11.995Z,1091.25
2022-08-07T10:48:09.482Z,528.75
2022-08-07T10:49:06.459Z,466.88
2022-08-07T10:50:06.494Z,517.50
2022-08-07T10:51:06.500Z,455.63
2022-08-07T10:52:13.747Z,466.88
2022-08-07T10:53:08.856Z,1186.88
2022-08-07T10:54:06.635Z,562.50
2022-08-07T10:55:21.214Z,466.88
2022-08-07T10:56:06.585Z,421.88
2022-08-07T10:57:06.606Z,438.75
2022-08-07T10:58:06.621Z,455.63
2022-08-07T10:59:06.649Z,444.38
2022-08-07T11:00:06.655Z,416.25
2022-08-07T11:01:11.644Z,399.38
2022-08-07T11:02:27.394Z,421.88
2022-08-07T11:03:11.006Z,416.25
2022-08-07T11:04:16.711Z,489.38
2022-08-07T11:05:10.167Z,517.50
2022-08-07T11:06:06.750Z,528.75
2022-08-07T11:07:14.965Z,483.75
2022-08-07T11:08:07.077Z,545.63
2022-08-07T11:09:11.139Z,590.63
2022-08-07T11:10:10.927Z,478.13
2022-08-07T11:11:06.838Z,427.50
2022-08-07T11:12:06.854Z,444.38
2022-08-07T11:13:06.865Z,483.75
2022-08-07T11:14:45.086Z,438.75
2022-08-07T11:15:09.691Z,455.63
2022-08-07T11:16:07.167Z,635.63
2022-08-07T11:17:07.329Z,703.13
2022-08-07T11:18:06.952Z,3307.50
2022-08-07T11:19:07.072Z,3555.00
2022-08-07T11:20:06.985Z,3645.00
2022-08-07T11:21:07.003Z,3583.13
2022-08-07T11:22:07.011Z,3555.00
2022-08-07T11:23:07.230Z,3510.00
2022-08-07T11:24:59.621Z,3521.25
2022-08-07T12:29:37.787Z,613.13
2022-08-07T12:30:23.481Z,613.13
2022-08-07T12:32:22.643Z,568.13
2022-08-07T12:33:23.445Z,540.00
2022-08-07T12:34:22.816Z,596.25
2022-08-07T12:35:24.096Z,736.88
2022-08-07T12:36:33.173Z,680.63
2022-08-07T12:37:23.665Z,585.00
2022-08-07T12:38:29.630Z,562.50
2022-08-07T12:39:43.118Z,568.13
2022-08-07T12:40:50.103Z,630.00
2022-08-07T12:41:22.836Z,652.50
2022-08-07T12:42:27.998Z,697.50
2022-08-07T12:44:02.068Z,652.50
2022-08-07T12:44:22.864Z,691.88
2022-08-07T12:45:22.892Z,703.13
2022-08-07T12:46:26.426Z,1895.63
2022-08-07T12:47:27.177Z,3110.63
2022-08-07T12:48:27.728Z,3105.00
2022-08-07T12:49:39.802Z,3093.75
2022-08-07T12:50:39.509Z,3015.00
2022-08-07T12:51:23.007Z,3082.50
2022-08-07T15:42:44.417Z,213.75
2022-08-07T15:43:33.320Z,208.13
2022-08-07T15:44:24.742Z,202.50
2022-08-07T15:45:24.754Z,202.50
2022-08-07T15:46:38.369Z,196.88
2022-08-07T15:47:59.968Z,191.25
2022-08-07T15:50:05.718Z,185.63
2022-08-07T15:51:01.043Z,180.00
2022-08-07T15:52:30.514Z,180.00
2022-08-07T15:53:48.571Z,174.38
2022-08-07T15:54:27.503Z,174.38
2022-08-07T15:55:53.939Z,174.38
2022-08-07T15:56:27.550Z,174.38
2022-08-07T15:57:39.229Z,168.75
2022-08-07T15:58:32.490Z,168.75
2022-08-07T15:59:38.923Z,163.13
2022-08-07T16:00:33.825Z,163.13
2022-08-07T16:01:38.618Z,157.50
2022-08-07T16:02:27.667Z,157.50
2022-08-07T16:03:46.962Z,157.50
2022-08-07T16:06:58.583Z,151.88
2022-08-07T16:08:31.179Z,151.88
2022-08-07T16:08:58.608Z,140.63
2022-08-07T16:09:58.660Z,106.88
2022-08-07T16:10:58.644Z,118.13
2022-08-07T16:11:58.667Z,112.50
2022-08-07T16:13:04.873Z,101.25
2022-08-07T16:14:41.248Z,118.13
2022-08-07T16:15:57.590Z,140.63
2022-08-07T16:16:43.025Z,146.25
2022-08-07T16:18:02.337Z,129.38
2022-08-07T16:18:43.579Z,146.25
2022-08-07T16:19:42.519Z,146.25
2022-08-07T16:20:41.632Z,140.63
2022-08-07T16:22:02.435Z,140.63
2022-08-07T16:22:55.346Z,140.63
2022-08-07T16:23:53.632Z,135.00
2022-08-07T16:24:52.767Z,135.00
2022-08-07T16:25:52.341Z,135.00
2022-08-07T16:26:58.736Z,129.38
2022-08-07T16:27:41.695Z,129.38
2022-08-07T16:30:07.033Z,129.38
2022-08-07T16:30:09.541Z,123.75
2022-08-07T16:30:41.515Z,123.75
2022-08-07T16:31:50.900Z,123.75
2022-08-07T16:32:46.323Z,123.75
2022-08-07T16:34:01.332Z,123.75
2022-08-07T16:34:41.582Z,118.13
2022-08-07T16:35:58.420Z,118.13
2022-08-07T16:37:02.123Z,118.13
2022-08-07T16:38:06.046Z,118.13
2022-08-07T16:39:00.728Z,118.13
2022-08-07T16:39:48.736Z,118.13
2022-08-07T16:40:57.292Z,118.13
2022-08-07T16:41:48.698Z,112.50
2022-08-07T16:42:41.721Z,112.50
2022-08-07T16:44:04.128Z,112.50
2022-08-07T16:47:16.649Z,106.88
2022-08-07T16:48:07.645Z,106.88
2022-08-07T16:50:20.777Z,101.25
2022-08-07T16:50:28.441Z,101.25
2022-08-07T16:52:01.703Z,101.25
2022-08-07T16:52:35.385Z,95.63
2022-08-07T16:53:48.211Z,101.25
2022-08-07T16:54:09.009Z,95.63
2022-08-07T16:55:11.413Z,95.63
2022-08-07T16:56:08.947Z,95.63
2022-08-07T16:57:12.965Z,90.00
2022-08-07T16:58:07.985Z,90.00
2022-08-07T16:59:10.973Z,84.38
2022-08-07T17:00:10.901Z,84.38
2022-08-07T17:01:08.103Z,84.38
2022-08-07T17:02:09.060Z,84.38
2022-08-07T17:03:08.010Z,78.75
2022-08-07T17:04:07.890Z,78.75
2022-08-07T17:05:07.904Z,78.75
2022-08-07T17:06:29.751Z,78.75
2022-08-07T17:07:07.944Z,78.75
2022-08-07T17:08:09.112Z,78.75
2022-08-07T17:09:10.399Z,78.75
2022-08-07T17:10:30.093Z,73.13
2022-08-07T17:11:08.000Z,73.13
2022-08-07T17:12:34.475Z,73.13
2022-08-07T17:13:08.622Z,73.13
2022-08-07T17:14:19.703Z,73.13
2022-08-07T17:15:08.069Z,73.13
2022-08-07T17:16:08.083Z,73.13
2022-08-07T17:17:08.093Z,73.13
2022-08-07T17:18:11.545Z,67.50
2022-08-07T17:19:15.748Z,67.50
2022-08-07T17:20:14.326Z,67.50
2022-08-07T17:21:18.710Z,67.50
2022-08-07T17:22:08.174Z,67.50
2022-08-07T17:23:11.502Z,67.50
2022-08-07T17:24:12.553Z,67.50
2022-08-07T17:25:08.445Z,67.50
2022-08-07T17:26:23.964Z,67.50
2022-08-07T17:27:08.414Z,67.50
2022-08-07T17:28:08.261Z,61.88
2022-08-07T17:29:08.275Z,61.88
2022-08-07T17:30:15.475Z,61.88
2022-08-07T17:31:16.657Z,61.88
2022-08-07T17:35:50.915Z,61.88
2022-08-07T17:35:59.267Z,56.25
2022-08-07T17:37:09.120Z,56.25
2022-08-07T17:38:07.233Z,56.25
2022-08-07T17:38:59.341Z,56.25
2022-08-07T17:40:05.187Z,56.25
2022-08-07T17:40:59.334Z,56.25
2022-08-07T17:42:04.843Z,56.25
2022-08-07T17:43:00.466Z,50.63
2022-08-07T17:44:01.675Z,50.63
2022-08-07T17:44:59.401Z,50.63
2022-08-07T17:45:59.410Z,50.63
2022-08-07T17:46:59.432Z,50.63
2022-08-07T17:47:59.439Z,50.63
2022-08-07T17:48:59.455Z,50.63
2022-08-07T17:49:59.475Z,50.63
2022-08-07T17:50:59.491Z,45.00
2022-08-07T17:52:00.508Z,45.00
2022-08-07T17:53:00.520Z,45.00
2022-08-07T17:54:02.036Z,45.00
2022-08-07T17:54:59.547Z,45.00
2022-08-07T17:56:06.238Z,45.00
2022-08-07T17:56:59.578Z,45.00
2022-08-07T17:58:02.104Z,39.38
2022-08-07T17:58:59.601Z,39.38
2022-08-07T17:59:59.623Z,39.38
2022-08-07T18:00:59.703Z,39.38
2022-08-07T18:01:59.703Z,39.38
2022-08-07T18:02:59.659Z,39.38
2022-08-07T18:04:06.969Z,39.38
2022-08-07T18:04:59.688Z,33.75
2022-08-07T18:06:02.649Z,33.75
2022-08-07T18:07:22.672Z,33.75
2022-08-07T18:07:59.735Z,33.75
2022-08-07T18:09:05.565Z,33.75
2022-08-07T18:10:06.907Z,33.75
2022-08-07T18:12:07.065Z,33.75
2022-08-07T18:12:17.460Z,28.13
2022-08-07T18:12:59.820Z,28.13
2022-08-07T18:14:01.579Z,28.13
2022-08-07T18:14:59.834Z,28.13
2022-08-07T18:30:31.850Z,16.88
2022-08-07T18:31:18.561Z,16.88
2022-08-07T18:32:18.343Z,16.88
2022-08-07T18:33:18.350Z,16.88
2022-08-07T18:34:37.159Z,16.88
2022-08-07T18:35:18.384Z,16.88
2022-08-07T18:36:18.391Z,11.25
2022-08-07T18:38:55.627Z,11.25
2022-08-07T18:38:57.299Z,11.25
2022-08-07T18:40:05.604Z,11.25
2022-08-07T18:40:42.326Z,11.25
2022-08-07T18:41:20.803Z,11.25
2022-08-07T18:42:18.581Z,11.25
2022-08-07T18:43:18.496Z,11.25
2022-08-07T18:44:18.503Z,5.63
2022-08-07T18:45:44.924Z,5.63
2022-08-07T18:46:21.987Z,5.63
2022-08-07T18:47:21.082Z,5.63
2022-08-07T18:50:05.179Z,5.63
2022-08-07T18:50:29.926Z,5.63
2022-08-07T18:50:36.542Z,5.63
2022-08-07T18:51:18.613Z,5.63
2022-08-07T18:52:37.506Z,5.63
2022-08-07T18:53:18.647Z,5.63
2022-08-07T18:54:30.651Z,0.00
2022-08-07T18:55:42.763Z,0.00
2022-08-07T18:56:18.674Z,0.00
2022-08-07T18:57:40.203Z,0.00
2022-08-07T18:58:18.696Z,0.00
2022-08-07T18:59:47.309Z,0.00
2022-08-07T19:00:34.095Z,0.00
2022-08-07T19:02:18.920Z,0.00
2022-08-07T19:02:36.935Z,0.00
2022-08-07T19:03:18.917Z,0.00
2022-08-07T19:04:32.375Z,0.00
2022-08-07T19:05:18.850Z,0.00
2022-08-07T19:06:18.813Z,0.00
2022-08-07T19:07:18.826Z,0.00
2022-08-07T19:08:18.832Z,0.00
2022-08-07T19:09:55.956Z,0.00
2022-08-07T19:10:21.732Z,0.00
2022-08-07T19:11:35.922Z,0.00
2022-08-07T19:12:19.043Z,0.00
2022-08-07T19:13:21.580Z,0.00
2022-08-07T19:14:20.271Z,0.00
2022-08-07T19:16:02.859Z,0.00
2022-08-07T19:17:01.013Z,0.00
2022-08-07T19:18:01.670Z,0.00
2022-08-07T19:18:18.973Z,0.00
2022-08-07T19:19:18.982Z,0.00
2022-08-07T19:20:29.242Z,0.00
2022-08-07T19:21:45.007Z,0.00
2022-08-07T19:22:19.027Z,0.00
2022-08-07T19:23:19.451Z,0.00
2022-08-07T19:24:30.365Z,0.00
2022-08-07T19:26:23.557Z,0.00
2022-08-07T19:26:24.080Z,0.00
2022-08-07T19:28:29.257Z,0.00
2022-08-07T19:30:55.673Z,0.00
2022-08-07T19:30:57.375Z,0.00
2022-08-07T19:31:04.154Z,0.00
2022-08-07T19:31:41.551Z,0.00
2022-08-07T19:32:39.465Z,0.00
2022-08-07T19:33:19.167Z,0.00
2022-08-07T19:34:32.767Z,0.00
2022-08-07T19:35:19.198Z,0.00
2022-08-07T19:36:27.787Z,0.00
2022-08-07T19:37:19.219Z,0.00
2022-08-07T19:38:19.239Z,0.00
2022-08-07T19:39:19.287Z,0.00
2022-08-07T19:40:31.308Z,0.00
2022-08-07T19:41:19.279Z,0.00
2022-08-07T19:42:24.524Z,0.00
2022-08-07T19:43:44.137Z,0.00
2022-08-07T19:44:19.318Z,0.00
2022-08-07T19:46:06.306Z,0.00
2022-08-07T19:46:19.407Z,0.00
2022-08-07T19:47:27.372Z,0.00
2022-08-07T19:48:23.880Z,0.00
2022-08-07T19:49:19.376Z,0.00
2022-08-07T19:50:41.546Z,0.00
2022-08-07T19:51:50.557Z,0.00
2022-08-07T19:52:19.420Z,0.00
2022-08-07T19:54:29.471Z,0.00
2022-08-07T19:54:29.567Z,0.00
2022-08-07T19:55:19.462Z,0.00
2022-08-07T19:57:52.181Z,0.00
2022-08-07T19:58:00.226Z,0.00
2022-08-07T19:58:27.873Z,0.00
2022-08-07T19:59:19.507Z,0.00
2022-08-07T20:00:27.932Z,0.00
2022-08-07T20:01:19.532Z,0.00
2022-08-07T20:02:20.963Z,0.00
2022-08-07T20:03:33.929Z,0.00
2022-08-07T20:04:32.099Z,0.00
2022-08-07T20:05:19.585Z,0.00
2022-08-07T20:06:30.403Z,0.00
2022-08-07T20:07:23.761Z,0.00
2022-08-07T20:08:19.624Z,0.00
2022-08-07T20:10:33.592Z,0.00
2022-08-07T20:10:38.257Z,0.00
2022-08-07T20:11:34.248Z,0.00
2022-08-07T20:12:31.237Z,0.00
2022-08-07T20:13:22.943Z,0.00
2022-08-07T20:14:20.967Z,0.00
2022-08-07T20:15:22.480Z,0.00
2022-08-07T20:16:35.174Z,0.00
2022-08-07T20:17:19.743Z,0.00
2022-08-07T20:18:20.090Z,0.00
2022-08-07T20:19:19.771Z,0.00
2022-08-07T20:20:19.774Z,0.00
2022-08-07T20:21:21.817Z,0.00
2022-08-07T20:22:24.871Z,0.00
2022-08-07T20:23:32.864Z,0.00
2022-08-07T20:24:19.834Z,0.00
2022-08-07T20:25:20.463Z,0.00
2022-08-07T20:26:29.656Z,0.00
2022-08-07T20:27:45.836Z,0.00
2022-08-07T20:28:19.884Z,0.00
2022-08-07T20:29:48.146Z,0.00
2022-08-07T20:30:22.502Z,0.00
2022-08-07T20:31:21.297Z,0.00
2022-08-07T20:32:23.159Z,0.00
2022-08-07T20:33:36.986Z,0.00
2022-08-07T20:34:39.972Z,0.00
2022-08-07T20:35:26.092Z,0.00
2022-08-07T20:36:19.985Z,0.00
2022-08-07T20:37:19.988Z,0.00
2022-08-07T20:38:20.007Z,0.00
2022-08-07T20:39:52.016Z,0.00
2022-08-07T20:40:32.541Z,0.00
2022-08-07T20:41:20.142Z,0.00
2022-08-07T20:42:20.060Z,0.00
2022-08-07T20:43:20.089Z,0.00
2022-08-07T20:44:20.074Z,0.00
2022-08-07T20:45:32.998Z,0.00
2022-08-07T20:46:28.340Z,0.00
2022-08-07T20:47:25.175Z,0.00
2022-08-07T20:48:25.844Z,0.00
2022-08-07T20:49:59.191Z,0.00
2022-08-07T20:50:20.158Z,0.00
2022-08-07T20:51:20.161Z,0.00
2022-08-07T20:52:21.099Z,0.00
2022-08-07T20:53:26.008Z,0.00
2022-08-07T20:54:29.590Z,0.00
2022-08-07T20:55:20.220Z,0.00
2022-08-07T20:56:26.254Z,0.00
2022-08-07T20:57:20.246Z,0.00
2022-08-07T20:58:28.280Z,0.00
2022-08-07T21:00:04.412Z,0.00
2022-08-07T21:00:20.275Z,0.00
2022-08-07T21:01:20.351Z,0.00
2022-08-07T21:02:23.306Z,0.00
2022-08-07T21:03:25.641Z,0.00
2022-08-07T21:04:23.329Z,0.00
2022-08-07T21:05:42.906Z,0.00
2022-08-07T21:06:26.097Z,0.00
2022-08-07T21:07:23.481Z,0.00
2022-08-07T21:08:33.196Z,0.00
2022-08-07T21:09:24.639Z,0.00
2022-08-07T21:10:25.274Z,0.00
2022-08-07T21:11:22.005Z,0.00
2022-08-07T21:12:28.870Z,0.00
2022-08-07T21:13:24.726Z,0.00
2022-08-07T21:14:34.259Z,0.00
2022-08-07T21:15:20.453Z,0.00
2022-08-07T21:16:20.470Z,0.00
2022-08-07T21:18:02.817Z,0.00
2022-08-07T21:18:27.878Z,0.00
2022-08-07T21:19:20.507Z,0.00
2022-08-07T21:20:26.811Z,0.00
2022-08-07T21:21:20.531Z,0.00
2022-08-07T21:22:20.537Z,0.00
2022-08-07T21:23:20.556Z,0.00
2022-08-07T21:24:20.566Z,0.00
2022-08-07T21:25:20.655Z,0.00
2022-08-07T21:26:20.586Z,0.00
2022-08-07T21:27:20.596Z,0.00
2022-08-07T21:28:49.921Z,0.00
2022-08-07T21:29:20.621Z,0.00
2022-08-07T21:30:20.639Z,0.00
2022-08-07T21:31:50.060Z,0.00
2022-08-07T21:32:47.764Z,0.00
2022-08-07T21:33:20.673Z,0.00
2022-08-07T21:34:20.688Z,0.00
2022-08-07T21:40:22.493Z,0.00
2022-08-07T21:41:22.459Z,0.00
2022-08-07T21:42:42.204Z,0.00
2022-08-07T21:46:24.333Z,0.00
2022-08-07T21:47:12.460Z,0.00
2022-08-07T21:48:08.411Z,0.00
2022-08-07T21:49:14.510Z,0.00
2022-08-07T21:50:08.428Z,0.00
2022-08-07T21:51:19.488Z,0.00
2022-08-07T21:52:11.471Z,0.00
2022-08-07T21:53:08.869Z,0.00
2022-08-07T21:55:31.279Z,0.00
2022-08-07T21:56:36.681Z,0.00
2022-08-07T21:57:44.505Z,0.00
2022-08-07T21:58:32.864Z,0.00
2022-08-07T21:59:31.326Z,0.00
2022-08-07T22:00:31.343Z,0.00
2022-08-07T22:02:11.282Z,0.00
2022-08-07T22:02:31.589Z,0.00
2022-08-07T22:03:32.052Z,0.00
2022-08-07T22:04:31.383Z,0.00
2022-08-07T22:05:45.332Z,0.00
2022-08-07T22:06:31.515Z,0.00
2022-08-07T22:07:48.596Z,0.00
2022-08-07T22:08:31.435Z,0.00
2022-08-07T22:09:38.141Z,0.00
2022-08-07T22:10:32.839Z,0.00
2022-08-07T22:13:09.727Z,0.00
2022-08-07T22:14:15.264Z,0.00
2022-08-07T22:16:39.587Z,0.00
2022-08-07T22:16:43.804Z,0.00
2022-08-07T22:17:09.174Z,0.00
2022-08-07T22:18:09.176Z,0.00
2022-08-07T22:19:09.189Z,0.00
2022-08-07T22:20:10.825Z,0.00
2022-08-07T22:21:11.611Z,0.00
2022-08-07T22:22:17.795Z,0.00
2022-08-07T22:23:09.241Z,0.00
2022-08-07T22:24:09.248Z,0.00
2022-08-07T22:25:09.278Z,0.00
2022-08-07T22:26:09.274Z,0.00
2022-08-07T22:27:09.282Z,0.00
2022-08-07T22:28:31.440Z,0.00
2022-08-07T22:29:13.658Z,0.00
2022-08-07T22:30:12.440Z,0.00
2022-08-07T22:31:09.323Z,0.00
2022-08-07T22:32:09.342Z,0.00
2022-08-07T22:33:09.634Z,0.00
2022-08-07T22:34:12.885Z,0.00
2022-08-07T22:35:11.274Z,0.00
2022-08-07T22:36:09.388Z,0.00
2022-08-07T22:37:09.669Z,0.00
2022-08-07T22:38:09.416Z,0.00
2022-08-07T22:39:09.485Z,0.00
2022-08-07T22:40:09.534Z,0.00
2022-08-07T22:41:09.450Z,0.00
2022-08-07T22:42:19.595Z,0.00
2022-08-07T22:43:09.468Z,0.00
2022-08-07T22:44:12.805Z,0.00
2022-08-07T22:45:11.077Z,0.00
2022-08-07T22:47:01.905Z,0.00
2022-08-07T22:47:09.509Z,0.00
2022-08-07T22:48:31.414Z,0.00
2022-08-07T22:49:15.806Z,0.00
2022-08-07T22:50:09.535Z,0.00
2022-08-07T22:51:09.550Z,0.00
2022-08-07T22:52:10.162Z,0.00
2022-08-07T22:53:09.569Z,0.00
2022-08-07T22:54:09.595Z,0.00
2022-08-07T22:55:17.640Z,0.00
2022-08-07T22:56:09.607Z,0.00
2022-08-07T22:57:09.613Z,0.00
2022-08-07T22:58:09.628Z,0.00
2022-08-07T22:59:09.642Z,0.00
2022-08-07T23:00:09.643Z,0.00
2022-08-07T23:01:09.656Z,0.00
2022-08-07T23:02:09.665Z,0.00
2022-08-07T23:03:09.738Z,0.00
2022-08-07T23:04:09.695Z,0.00
2022-08-07T23:06:07.128Z,0.00
2022-08-07T23:06:15.267Z,0.00
2022-08-07T23:07:33.581Z,0.00
2022-08-07T23:08:22.198Z,0.00
2022-08-07T23:10:00.855Z,0.00
2022-08-07T23:10:38.014Z,0.00
2022-08-07T23:11:13.112Z,0.00
2022-08-07T23:12:09.776Z,0.00
2022-08-07T23:13:09.785Z,0.00
2022-08-07T23:14:14.982Z,0.00
2022-08-07T23:15:09.806Z,0.00
2022-08-07T23:16:39.264Z,0.00
2022-08-07T23:17:12.649Z,0.00
2022-08-07T23:18:09.840Z,0.00
2022-08-07T23:19:11.389Z,0.00
2022-08-07T23:20:09.861Z,0.00
2022-08-07T23:21:09.878Z,0.00
2022-08-07T23:22:09.889Z,0.00
2022-08-07T23:23:09.958Z,0.00
2022-08-07T23:24:11.934Z,0.00
2022-08-07T23:25:09.914Z,0.00
2022-08-07T23:26:09.925Z,0.00
2022-08-07T23:27:10.821Z,0.00
2022-08-07T23:28:22.372Z,0.00
2022-08-07T23:29:16.575Z,0.00
2022-08-07T23:30:37.429Z,0.00
2022-08-07T23:31:11.757Z,0.00
2022-08-07T23:34:20.847Z,0.00
2022-08-07T23:34:22.102Z,0.00
2022-08-07T23:34:35.436Z,0.00
2022-08-07T23:35:10.029Z,0.00
2022-08-07T23:36:10.721Z,0.00
2022-08-07T23:37:20.366Z,0.00
2022-08-07T23:38:10.739Z,0.00
2022-08-07T23:39:10.104Z,0.00
2022-08-07T23:40:10.082Z,0.00
2022-08-07T23:41:10.094Z,0.00
2022-08-07T23:42:10.101Z,0.00
2022-08-07T23:43:16.916Z,0.00
2022-08-07T23:44:10.117Z,0.00
2022-08-07T23:45:15.003Z,0.00
2022-08-07T23:46:10.812Z,0.00
2022-08-07T23:47:10.151Z,0.00
2022-08-07T23:48:10.159Z,0.00
2022-08-07T23:49:13.731Z,0.00
2022-08-07T23:50:11.729Z,0.00
2022-08-07T23:53:00.938Z,0.00
2022-08-07T23:53:06.716Z,0.00
2022-08-07T23:53:16.556Z,0.00
2022-08-07T23:54:19.542Z,0.00
2022-08-07T23:55:10.238Z,0.00
2022-08-07T23:56:11.762Z,0.00
2022-08-07T23:57:10.262Z,0.00
2022-08-07T23:58:18.812Z,0.00
